Time;durP1;ratioP1;P1;durP2;ratioP2;P2;SDS_P1;SDS_P2;PMS_P1;PMS_P2;Temp;Humidity;BMP_temperature;BMP_pressure;BME280_temperature;BME280_humidity;BME280_pressure;Samples;Min_cycle;Max_cycle;Signal;HPM_P1;HPM_P2
2022/06/21 00:01:21;;;;;;;9.60;4.63;;;;;;;14.51;65.75;101448.66;3569679;40;20040;-63
2022/06/21 00:03:50;;;;;;;10.75;4.38;;;;;;;14.61;66.54;101470.53;3574501;40;20092;-63
2022/06/21 00:06:23;;;;;;;9.38;5.10;;;;;;;14.59;66.50;101467.09;3573553;40;20408;-64
2022/06/21 00:08:50;;;;;;;8.02;4.53;;;;;;;14.37;66.45;101454.13;3571651;40;20064;-64
2022/06/21 00:11:29;;;;;;;9.85;4.97;;;;;;;14.53;66.63;101479.19;3571161;40;20049;-64
2022/06/21 00:13:55;;;;;;;8.73;4.50;;;;;;;14.54;66.39;101486.31;3567593;40;20056;-64
2022/06/21 00:16:26;;;;;;;11.68;5.25;;;;;;;14.52;66.75;101479.28;3571742;40;20088;-65
2022/06/21 00:18:53;;;;;;;10.18;4.82;;;;;;;14.30;66.96;101452.78;3571164;40;20126;-64
2022/06/21 00:21:27;;;;;;;10.02;4.15;;;;;;;14.47;66.97;101482.28;3569385;40;20053;-66
2022/06/21 00:23:54;;;;;;;10.18;5.10;;;;;;;14.45;66.66;101484.22;3572297;40;20104;-64
2022/06/21 00:26:24;;;;;;;10.38;4.40;;;;;;;14.43;66.90;101480.75;3571631;40;20053;-64
2022/06/21 00:28:50;;;;;;;10.48;4.78;;;;;;;14.33;67.25;101469.66;3571325;40;20048;-65
2022/06/21 00:31:21;;;;;;;8.13;4.93;;;;;;;14.34;67.65;101478.66;3573107;40;20053;-65
2022/06/21 00:33:48;;;;;;;11.20;5.00;;;;;;;14.28;67.79;101476.38;3572539;40;20045;-65
2022/06/21 00:36:27;;;;;;;9.45;4.85;;;;;;;14.24;68.17;101474.81;3571693;40;20060;-64
2022/06/21 00:38:57;;;;;;;11.73;4.95;;;;;;;14.22;68.01;101476.78;3565311;40;20057;-65
2022/06/21 00:41:51;;;;;;;10.32;4.93;;;;;;;14.13;68.44;101481.81;3575223;40;20122;-64
2022/06/21 00:44:45;;;;;;;11.13;5.18;;;;;;;14.08;68.23;101475.88;3570865;40;20033;-65
2022/06/21 00:47:27;;;;;;;8.40;4.93;;;;;;;13.45;68.60;101376.44;3572393;40;20057;-65
2022/06/21 00:50:09;;;;;;;11.80;4.93;;;;;;;13.91;68.99;101478.78;3572956;40;20114;-63
2022/06/21 00:53:04;;;;;;;9.93;5.18;;;;;;;13.87;69.42;101469.16;3572036;40;20045;-65
2022/06/21 00:56:01;;;;;;;11.38;5.43;;;;;;;13.82;69.75;101465.88;3571967;40;20084;-65
2022/06/21 00:58:30;;;;;;;11.73;5.65;;;;;;;13.73;69.32;101471.88;3572795;40;20056;-63
2022/06/21 01:01:26;;;;;;;8.95;5.60;;;;;;;13.67;69.85;101463.22;3573217;40;20071;-64
2022/06/21 01:04:04;;;;;;;10.43;5.43;;;;;;;13.63;70.30;101458.97;3574325;40;20080;-64
2022/06/21 01:06:40;;;;;;;11.75;5.07;;;;;;;13.59;69.97;101443.94;3573268;40;20100;-63
2022/06/21 01:09:27;;;;;;;8.80;5.25;;;;;;;13.55;70.37;101436.13;3573123;40;20119;-63
2022/06/21 01:12:09;;;;;;;9.35;5.28;;;;;;;13.54;70.38;101442.47;3572660;40;20169;-63
2022/06/21 01:14:46;;;;;;;11.85;5.72;;;;;;;13.54;70.50;101434.38;3572026;40;20061;-63
2022/06/21 01:17:12;;;;;;;10.93;5.40;;;;;;;13.54;70.19;101435.28;3573493;40;20057;-63
2022/06/21 01:19:52;;;;;;;11.30;5.80;;;;;;;13.56;70.28;101433.31;3571933;40;20322;-63
2022/06/21 01:22:50;;;;;;;11.88;5.40;;;;;;;13.55;70.13;101434.28;3578718;40;20084;-63
2022/06/21 01:25:54;;;;;;;11.38;6.18;;;;;;;13.58;70.88;101436.81;3575425;40;20403;-64
2022/06/21 01:28:20;;;;;;;;;;;;;;;13.57;70.36;101432.34;3570713;40;20044;-65
2022/06/21 01:30:53;;;;;;;10.23;5.55;;;;;;;13.57;70.41;101431.47;3569525;40;20454;-65
2022/06/21 01:33:31;;;;;;;14.60;6.10;;;;;;;13.56;70.46;101437.84;3570954;40;20150;-64
2022/06/21 01:36:06;;;;;;;9.50;5.78;;;;;;;13.19;70.61;101370.88;3573813;40;20049;-65
2022/06/21 01:38:47;;;;;;;9.50;6.00;;;;;;;13.52;70.54;101430.94;3568915;40;20052;-65
2022/06/21 01:41:30;;;;;;;11.98;6.30;;;;;;;13.39;70.64;101418.22;3569932;40;20049;-66
2022/06/21 01:44:06;;;;;;;11.07;6.57;;;;;;;13.45;71.03;101438.56;3573635;40;20052;-65
2022/06/21 01:46:33;;;;;;;13.93;6.75;;;;;;;13.45;70.64;101430.47;3572153;40;20056;-65
2022/06/21 01:49:10;;;;;;;14.15;6.93;;;;;;;13.42;70.65;101436.06;3574128;40;20178;-66
2022/06/21 01:51:51;;;;;;;11.27;6.40;;;;;;;13.16;70.96;101406.16;3570237;40;20060;-65
2022/06/21 01:54:25;;;;;;;11.50;6.53;;;;;;;13.19;71.39;101410.47;3572358;40;20049;-65
2022/06/21 01:56:52;;;;;;;11.93;7.05;;;;;;;13.27;71.57;101432.50;3572813;40;20583;-65
2022/06/21 01:59:31;;;;;;;11.02;6.50;;;;;;;13.27;71.79;101426.22;3572022;40;20171;-64
2022/06/21 02:02:09;;;;;;;11.60;6.75;;;;;;;12.96;71.52;101387.63;3573946;40;20061;-65
2022/06/21 02:04:58;;;;;;;11.13;7.07;;;;;;;13.21;71.45;101436.41;3574897;40;20079;-65
2022/06/21 02:07:34;;;;;;;12.55;6.60;;;;;;;13.19;72.01;101426.66;3578538;40;20081;-65
2022/06/21 02:10:34;;;;;;;13.77;7.25;;;;;;;13.20;71.60;101428.41;3577219;40;20056;-65
2022/06/21 02:13:25;;;;;;;12.93;7.13;;;;;;;13.22;71.51;101419.25;3579713;40;20418;-64
2022/06/21 02:16:02;;;;;;;14.85;7.55;;;;;;;13.17;71.97;101418.69;3577454;40;20055;-65
2022/06/21 02:18:34;;;;;;;13.88;6.72;;;;;;;13.16;72.22;101418.75;3574546;40;20325;-65
2022/06/21 02:21:32;;;;;;;17.33;7.95;;;;;;;13.11;72.22;101418.19;3576143;40;20481;-65
2022/06/21 02:23:59;;;;;;;12.95;7.43;;;;;;;13.07;72.76;101416.66;3572191;40;20085;-64
2022/06/21 02:26:32;;;;;;;12.55;7.53;;;;;;;13.00;73.33;101417.06;3570393;40;20057;-65
2022/06/21 02:29:00;;;;;;;12.13;6.90;;;;;;;12.97;72.96;101413.66;3576231;40;20050;-65
2022/06/21 02:31:27;;;;;;;12.65;8.50;;;;;;;12.90;72.44;101394.28;3576469;40;20103;-65
2022/06/21 02:34:03;;;;;;;11.82;8.43;;;;;;;12.88;72.94;101389.97;3576364;40;20082;-65
2022/06/21 02:36:51;;;;;;;14.75;8.25;;;;;;;12.75;73.46;101376.38;3575617;40;20114;-65
2022/06/21 02:39:23;;;;;;;9.82;7.45;;;;;;;12.77;72.91;101386.09;3571556;40;20107;-65
2022/06/21 02:42:06;;;;;;;10.83;7.87;;;;;;;12.73;73.52;101387.25;3573366;40;20049;-65
2022/06/21 02:44:43;;;;;;;14.27;7.43;;;;;;;12.72;73.94;101398.13;3571874;40;20101;-65
2022/06/21 02:47:17;;;;;;;13.32;8.00;;;;;;;12.70;73.72;101398.22;3579100;40;20719;-65
2022/06/21 02:50:00;;;;;;;12.25;8.10;;;;;;;12.68;74.40;101388.47;3574466;40;20071;-65
2022/06/21 02:52:37;;;;;;;14.20;8.48;;;;;;;12.65;74.85;101392.22;3571377;40;20056;-65
2022/06/21 02:55:21;;;;;;;13.77;8.10;;;;;;;12.60;74.96;101397.06;3573277;40;20072;-65
2022/06/21 02:58:09;;;;;;;12.55;7.78;;;;;;;12.53;74.93;101398.41;3574342;40;20322;-64
2022/06/21 03:00:36;;;;;;;11.85;7.78;;;;;;;12.36;75.04;101385.06;3571707;40;20057;-65
2022/06/21 03:03:05;;;;;;;11.65;7.82;;;;;;;12.48;75.01;101403.19;3573664;40;20049;-65
2022/06/21 03:05:34;;;;;;;16.33;8.05;;;;;;;12.46;74.65;101394.31;3571239;40;20119;-65
2022/06/21 03:08:06;;;;;;;15.77;8.00;;;;;;;12.45;74.74;101398.84;3569423;40;20045;-64
2022/06/21 03:10:40;;;;;;;11.10;7.93;;;;;;;12.41;74.20;101391.06;3572005;40;20060;-64
2022/06/21 03:13:18;;;;;;;11.23;7.90;;;;;;;12.38;74.37;101396.63;3569752;40;20063;-65
2022/06/21 03:15:56;;;;;;;13.60;7.55;;;;;;;12.37;74.78;101400.25;3564983;40;20126;-64
2022/06/21 03:18:32;;;;;;;9.73;7.65;;;;;;;12.36;73.84;101399.41;3565936;40;20496;-64
2022/06/21 03:20:59;;;;;;;14.55;7.38;;;;;;;12.36;74.34;101401.22;3571168;40;20053;-64
2022/06/21 03:23:28;;;;;;;13.55;7.90;;;;;;;12.34;74.64;101397.75;3565488;40;20364;-65
2022/06/21 03:26:00;;;;;;;9.77;7.82;;;;;;;12.35;74.22;101394.13;3569615;40;20162;-65
2022/06/21 03:28:41;;;;;;;11.13;7.60;;;;;;;12.34;74.41;101404.03;3569718;40;20477;-65
2022/06/21 03:31:12;;;;;;;12.43;7.97;;;;;;;12.32;74.18;101401.41;3570361;40;20048;-65
2022/06/21 03:33:43;;;;;;;14.77;8.13;;;;;;;12.35;74.57;101397.69;3569856;40;20064;-64
2022/06/21 03:36:18;;;;;;;15.05;9.30;;;;;;;12.31;74.44;101383.50;3574473;40;20063;-65
2022/06/21 03:38:49;;;;;;;14.45;9.05;;;;;;;12.27;75.39;101384.66;3567106;40;20426;-64
2022/06/21 03:44:26;;;;;;;16.75;8.93;;;;;;;12.28;75.24;101377.44;3560671;40;20059;-65
2022/06/21 03:47:02;;;;;;;16.20;9.20;;;;;;;12.29;74.93;101377.34;3566638;40;20399;-64
2022/06/21 03:50:09;;;;;;;12.38;8.52;;;;;;;12.27;74.84;101367.59;3569684;40;20482;-64
2022/06/21 03:52:46;;;;;;;16.25;9.27;;;;;;;12.27;75.39;101373.88;3569519;40;20390;-64
2022/06/21 03:55:51;;;;;;;13.15;9.43;;;;;;;12.31;75.12;101377.25;3569176;40;20118;-65
2022/06/21 03:58:23;;;;;;;12.18;8.98;;;;;;;12.32;76.16;101370.91;3569236;40;20072;-64
2022/06/21 04:01:06;;;;;;;15.52;10.45;;;;;;;12.30;75.75;101378.19;3570935;40;20062;-64
2022/06/21 04:03:44;;;;;;;16.97;10.67;;;;;;;12.29;76.59;101377.34;3568702;40;20052;-64
2022/06/21 04:07:01;;;;;;;15.43;10.00;;;;;;;12.31;76.38;101386.22;3569833;40;20057;-64
2022/06/21 04:10:04;;;;;;;15.52;9.82;;;;;;;12.36;76.44;101387.75;3531133;40;20062;-64
2022/06/21 04:12:52;;;;;;;13.52;10.07;;;;;;;12.41;75.83;101386.53;3557015;40;20080;-64
2022/06/21 04:15:49;;;;;;;14.65;10.30;;;;;;;12.32;75.85;101357.41;3565740;40;20378;-63
2022/06/21 04:18:31;;;;;;;15.23;10.40;;;;;;;12.47;76.49;101386.16;3567030;40;20052;-63
2022/06/21 04:21:24;;;;;;;14.93;9.55;;;;;;;12.53;76.07;101371.44;3568996;40;20125;-63
2022/06/21 04:24:13;;;;;;;15.07;10.20;;;;;;;12.58;76.42;101381.91;3568316;40;20088;-64
2022/06/21 04:27:01;;;;;;;14.50;9.93;;;;;;;12.63;76.27;101375.28;3570050;40;20120;-63
2022/06/21 04:29:54;;;;;;;12.70;9.90;;;;;;;12.69;75.19;101365.97;3569669;40;20115;-64
2022/06/21 04:32:47;;;;;;;12.90;9.48;;;;;;;12.73;75.35;101364.78;3568417;40;20126;-64
2022/06/21 04:35:29;;;;;;;14.50;10.02;;;;;;;12.65;75.13;101349.06;3569044;40;20089;-64
2022/06/21 04:38:27;;;;;;;12.45;8.63;;;;;;;12.77;75.29;101366.34;3569786;40;20371;-64
2022/06/21 04:41:17;;;;;;;12.25;9.07;;;;;;;12.83;75.68;101365.94;3566212;40;20392;-64
2022/06/21 04:44:10;;;;;;;10.88;9.15;;;;;;;12.94;75.01;101357.16;3571523;40;20107;-64
2022/06/21 04:46:49;;;;;;;12.23;9.00;;;;;;;12.99;75.17;101353.22;3573550;40;20155;-63
2022/06/21 04:49:39;;;;;;;12.75;9.02;;;;;;;13.03;74.31;101345.78;3567533;40;20064;-63
2022/06/21 04:52:22;;;;;;;20.95;8.77;;;;;;;13.08;74.20;101348.22;3568599;40;20104;-64
2022/06/21 04:54:47;;;;;;;14.02;7.85;;;;;;;13.16;73.85;101365.66;3565945;40;20067;-64
2022/06/21 04:57:24;;;;;;;15.05;7.85;;;;;;;13.23;73.43;101353.50;3566101;40;20064;-63
2022/06/21 04:59:55;;;;;;;10.10;7.07;;;;;;;13.29;73.35;101345.97;3570060;40;20052;-64
2022/06/21 05:02:29;;;;;;;13.23;7.13;;;;;;;13.35;73.79;101346.47;3570560;40;20127;-64
2022/06/21 05:05:32;;;;;;;12.00;7.55;;;;;;;13.41;72.30;101345.19;3565297;40;20072;-63
2022/06/21 05:08:16;;;;;;;11.95;6.97;;;;;;;13.51;71.53;101350.84;3566805;40;20069;-64
2022/06/21 05:10:52;;;;;;;11.32;6.38;;;;;;;13.59;71.48;101354.78;3568408;40;20048;-64
2022/06/21 05:13:37;;;;;;;12.93;6.40;;;;;;;13.65;71.50;101357.09;3566662;40;20068;-63
2022/06/21 05:16:15;;;;;;;15.07;6.70;;;;;;;13.61;70.83;101335.78;3568570;40;20061;-64
2022/06/21 05:18:49;;;;;;;10.07;6.28;;;;;;;13.78;70.58;101346.31;3567398;40;20057;-63
2022/06/21 05:21:33;;;;;;;8.75;6.10;;;;;;;13.85;70.19;101335.97;3569018;40;20060;-64
2022/06/21 05:24:01;;;;;;;11.35;5.93;;;;;;;13.89;69.60;101335.66;3566772;40;20070;-64
2022/06/21 05:26:46;;;;;;;12.52;5.80;;;;;;;13.96;69.20;101335.25;3569788;40;20344;-64
2022/06/21 05:29:36;;;;;;;11.95;6.07;;;;;;;14.00;68.76;101336.78;3569896;40;20131;-66
2022/06/21 05:32:14;;;;;;;12.00;5.35;;;;;;;14.08;69.05;101346.09;3567890;40;20075;-64
2022/06/21 05:34:48;;;;;;;12.18;5.75;;;;;;;14.10;68.36;101354.94;3569160;40;20065;-63
2022/06/21 05:37:30;;;;;;;6.80;5.25;;;;;;;14.12;68.51;101363.84;3565931;40;20053;-64
2022/06/21 05:40:00;;;;;;;10.52;5.40;;;;;;;14.14;68.05;101352.91;3567061;40;20451;-63
2022/06/21 05:42:28;;;;;;;10.90;5.13;;;;;;;14.31;68.38;101368.00;3566821;40;20118;-63
2022/06/21 05:45:10;;;;;;;11.50;5.22;;;;;;;14.43;67.62;101355.44;3568971;40;20059;-63
2022/06/21 05:47:54;;;;;;;10.10;5.35;;;;;;;14.52;66.87;101347.56;3569122;40;20088;-63
2022/06/21 05:50:28;;;;;;;6.35;4.82;;;;;;;14.61;66.61;101357.75;3566894;40;20053;-64
2022/06/21 05:53:06;;;;;;;7.90;4.50;;;;;;;14.70;66.41;101369.78;3570116;40;20048;-64
2022/06/21 05:55:38;;;;;;;7.85;4.60;;;;;;;14.78;65.76;101380.03;3567404;40;20052;-64
2022/06/21 05:58:26;;;;;;;8.68;4.65;;;;;;;14.81;65.65;101372.59;3569727;40;20367;-64
2022/06/21 06:01:10;;;;;;;10.07;4.50;;;;;;;14.96;65.28;101377.88;3568214;40;20396;-64
2022/06/21 06:03:52;;;;;;;;;;;;;;;15.05;65.10;101383.50;3567436;40;20683;-64
2022/06/21 06:06:21;;;;;;;7.55;4.35;;;;;;;15.17;64.38;101383.63;3567732;40;20047;-63
2022/06/21 06:08:54;;;;;;;9.52;4.50;;;;;;;15.31;64.69;101380.75;3568087;40;20403;-64
2022/06/21 06:11:58;;;;;;;7.15;3.88;;;;;;;15.53;64.78;101385.47;3570156;40;20040;-63
2022/06/21 06:14:38;;;;;;;7.55;3.65;;;;;;;15.68;63.38;101389.78;3566401;40;20057;-64
2022/06/21 06:17:16;;;;;;;6.65;3.58;;;;;;;15.93;62.87;101386.09;3568610;40;20064;-64
2022/06/21 06:19:55;;;;;;;7.78;3.35;;;;;;;16.10;62.18;101392.09;3568129;40;20059;-64
2022/06/21 06:22:36;;;;;;;7.30;4.15;;;;;;;16.22;61.39;101399.31;3568987;40;20045;-64
2022/06/21 06:25:48;;;;;;;4.95;3.03;;;;;;;16.47;60.98;101396.44;3566933;40;20391;-64
2022/06/21 06:28:44;;;;;;;5.78;3.42;;;;;;;16.65;60.17;101406.81;3567749;40;20052;-63
2022/06/21 06:31:21;;;;;;;5.65;3.30;;;;;;;16.79;58.51;101409.38;3567553;40;20332;-64
2022/06/21 06:34:00;;;;;;;8.15;3.13;;;;;;;16.83;57.02;101408.13;3568223;40;20440;-63
2022/06/21 06:36:44;;;;;;;7.82;2.83;;;;;;;16.80;58.28;101383.94;3570964;40;20049;-64
2022/06/21 06:39:23;;;;;;;14.02;4.10;;;;;;;17.00;58.18;101381.47;3569890;40;20166;-64
2022/06/21 06:42:08;;;;;;;4.78;2.97;;;;;;;17.20;56.86;101404.34;3570260;40;20056;-64
2022/06/21 06:45:14;;;;;;;7.05;3.28;;;;;;;17.37;56.29;101410.13;3570829;40;20061;-64
2022/06/21 06:47:51;;;;;;;6.25;3.13;;;;;;;17.51;56.67;101413.59;3565055;40;20056;-64
2022/06/21 06:50:32;;;;;;;7.93;3.45;;;;;;;17.76;55.94;101410.59;3563725;40;20060;-63
2022/06/21 06:53:08;;;;;;;8.68;3.28;;;;;;;17.87;54.94;101409.72;3570173;40;20433;-65
2022/06/21 06:55:47;;;;;;;6.50;3.10;;;;;;;17.94;53.12;101402.75;3567569;40;20126;-64
2022/06/21 06:58:42;;;;;;;6.40;3.00;;;;;;;18.12;53.91;101399.50;3570307;40;20057;-64
2022/06/21 07:01:24;;;;;;;6.72;2.78;;;;;;;18.37;54.14;101409.16;3568875;40;20064;-64
2022/06/21 07:04:02;;;;;;;8.52;3.10;;;;;;;18.50;52.88;101404.38;3569657;40;20069;-65
2022/06/21 07:06:47;;;;;;;8.02;3.00;;;;;;;18.68;53.08;101408.25;3570414;40;20352;-64
2022/06/21 07:09:27;;;;;;;6.78;3.40;;;;;;;18.80;52.16;101400.88;3569718;40;20057;-65
2022/06/21 07:12:01;;;;;;;9.15;3.28;;;;;;;18.78;51.90;101403.75;3570810;40;20053;-65
2022/06/21 07:14:29;;;;;;;9.82;3.25;;;;;;;19.07;51.42;101407.63;3569418;40;20067;-64
2022/06/21 07:17:09;;;;;;;8.05;3.00;;;;;;;19.25;50.85;101412.31;3570669;40;20056;-65
2022/06/21 07:19:35;;;;;;;9.20;3.53;;;;;;;19.36;52.10;101408.63;3569552;40;20053;-65
2022/06/21 07:22:01;;;;;;;6.82;3.28;;;;;;;19.42;50.65;101399.03;3571659;40;20069;-64
2022/06/21 07:24:28;;;;;;;10.93;3.53;;;;;;;19.49;49.91;101392.00;3572155;40;20625;-64
2022/06/21 07:27:05;;;;;;;6.88;3.10;;;;;;;19.61;50.45;101390.91;3571599;40;20065;-64
2022/06/21 07:29:56;;;;;;;9.98;3.40;;;;;;;19.70;49.93;101401.00;3572892;40;20096;-64
2022/06/21 07:32:34;;;;;;;9.73;3.47;;;;;;;19.56;49.48;101398.63;3571987;40;20048;-64
2022/06/21 07:35:15;;;;;;;6.82;3.47;;;;;;;19.62;49.85;101392.63;3569928;40;20072;-63
2022/06/21 07:37:59;;;;;;;8.35;3.17;;;;;;;19.81;50.41;101385.50;3570091;40;20049;-63
2022/06/21 07:40:44;;;;;;;6.78;3.00;;;;;;;20.03;49.02;101393.44;3570472;40;20277;-64
2022/06/21 07:43:43;;;;;;;13.63;3.80;;;;;;;20.16;48.98;101396.75;3569008;40;20064;-64
2022/06/21 07:46:17;;;;;;;7.15;3.55;;;;;;;20.43;47.99;101400.63;3571319;40;20088;-64
2022/06/21 07:49:02;;;;;;;6.90;3.30;;;;;;;20.63;49.23;101399.63;3569046;40;20101;-64
2022/06/21 07:51:41;;;;;;;7.60;3.20;;;;;;;20.56;47.21;101389.44;3569139;40;20045;-64
2022/06/21 07:54:34;;;;;;;10.65;3.33;;;;;;;20.77;46.23;101383.78;3567448;40;20104;-64
2022/06/21 07:57:15;;;;;;;6.68;2.88;;;;;;;21.04;45.02;101388.44;3569801;40;20076;-64
2022/06/21 07:59:52;;;;;;;8.32;3.13;;;;;;;21.09;44.85;101397.94;3569494;40;20094;-64
2022/06/21 08:08:45;;;;;;;7.30;2.78;;;;;;;21.54;43.99;101372.56;3568529;40;20155;-64
2022/06/21 08:11:25;;;;;;;8.27;2.83;;;;;;;21.73;43.76;101378.94;3570171;40;20055;-63
2022/06/21 08:13:51;;;;;;;24.42;4.20;;;;;;;21.64;43.43;101377.13;3564611;40;20106;-64
2022/06/21 08:16:23;;;;;;;11.95;3.05;;;;;;;21.61;44.29;101382.91;3569736;40;20277;-64
2022/06/21 08:19:14;;;;;;;12.32;3.10;;;;;;;21.70;42.70;101384.72;3570098;40;20059;-64
2022/06/21 08:21:53;;;;;;;14.95;3.30;;;;;;;21.72;42.39;101375.31;3570706;40;20092;-63
2022/06/21 08:24:56;;;;;;;6.25;2.58;;;;;;;21.83;42.08;101359.72;3568918;40;20164;-64
2022/06/21 08:28:17;;;;;;;5.88;2.40;;;;;;;21.99;40.66;101357.97;3567029;40;20049;-64
2022/06/21 08:30:54;;;;;;;3.55;2.40;;;;;;;22.02;42.72;101338.50;3569798;40;20321;-65
2022/06/21 08:33:39;;;;;;;7.38;2.90;;;;;;;22.21;42.20;101336.66;3569821;40;20060;-62
2022/06/21 08:36:18;;;;;;;7.90;3.20;;;;;;;22.01;43.65;101325.84;3570885;40;20162;-62
2022/06/21 08:39:16;;;;;;;5.82;2.92;;;;;;;21.97;43.19;101346.31;3572487;40;20346;-62
2022/06/21 08:42:26;;;;;;;5.18;2.80;;;;;;;22.05;42.17;101336.47;3551598;40;20060;-62
2022/06/21 08:45:43;;;;;;;6.78;2.83;;;;;;;22.30;42.33;101330.22;3566557;40;20154;-63
2022/06/21 08:48:14;;;;;;;7.55;3.10;;;;;;;22.26;41.71;101323.31;3571926;40;20415;-62
2022/06/21 08:50:59;;;;;;;6.30;3.28;;;;;;;22.13;41.82;101311.88;3568972;40;20063;-62
2022/06/21 08:53:49;;;;;;;5.30;3.05;;;;;;;21.83;41.80;101294.88;3572451;40;20053;-63
2022/06/21 08:56:31;;;;;;;7.63;3.30;;;;;;;21.43;42.36;101303.53;3570547;40;20056;-63
2022/06/21 08:59:27;;;;;;;15.43;3.90;;;;;;;21.23;43.96;101319.16;3569010;40;20436;-63
2022/06/21 09:02:19;;;;;;;7.32;3.35;;;;;;;21.17;45.44;101309.69;3560587;40;20056;-63
2022/06/21 09:05:27;;;;;;;8.95;3.53;;;;;;;21.21;45.01;101300.16;3569386;40;20041;-63
2022/06/21 09:08:08;;;;;;;7.97;3.80;;;;;;;21.06;44.96;101312.63;3568746;40;20053;-63
2022/06/21 09:11:20;;;;;;;9.88;4.25;;;;;;;21.35;45.45;101295.22;3570821;40;20057;-63
2022/06/21 09:14:06;;;;;;;11.00;5.55;;;;;;;22.02;42.99;101291.97;3569840;40;20123;-63
2022/06/21 09:16:50;;;;;;;7.20;3.28;;;;;;;22.47;42.08;101288.22;3570716;40;20051;-63
2022/06/21 09:19:37;;;;;;;5.05;3.08;;;;;;;22.83;40.42;101288.06;3570557;40;20045;-63
2022/06/21 09:22:21;;;;;;;8.18;3.50;;;;;;;23.25;41.01;101281.78;3563426;40;20130;-63
2022/06/21 09:25:10;;;;;;;8.68;3.35;;;;;;;23.65;38.81;101282.91;3568702;40;20299;-63
2022/06/21 09:27:47;;;;;;;5.45;3.33;;;;;;;23.87;38.99;101267.69;3571927;40;20162;-63
2022/06/21 09:30:31;;;;;;;5.95;3.03;;;;;;;24.27;37.66;101266.81;3570571;40;20339;-63
2022/06/21 09:34:07;;;;;;;7.07;3.13;;;;;;;24.41;37.67;101261.63;3570390;40;20382;-62
2022/06/21 09:37:00;;;;;;;5.95;3.30;;;;;;;24.57;38.44;101256.13;3560969;40;20107;-63
2022/06/21 09:40:06;;;;;;;5.03;2.90;;;;;;;24.74;36.89;101268.81;3569693;40;20065;-63
2022/06/21 09:42:50;;;;;;;7.28;2.90;;;;;;;24.62;37.21;101270.22;3570534;40;20617;-63
2022/06/21 09:45:34;;;;;;;6.55;3.25;;;;;;;24.66;37.15;101276.22;3568096;40;21035;-63
2022/06/21 09:48:29;;;;;;;5.10;2.83;;;;;;;24.77;38.13;101265.69;3568485;40;20071;-63
2022/06/21 09:51:32;;;;;;;7.57;2.85;;;;;;;24.78;36.29;101275.66;3568133;40;20072;-63
2022/06/21 09:54:34;;;;;;;5.32;2.85;;;;;;;24.58;36.88;101263.34;3567565;40;20104;-62
2022/06/21 09:57:18;;;;;;;6.28;2.95;;;;;;;24.11;37.53;101261.34;3569249;40;20126;-63
2022/06/21 10:00:04;;;;;;;5.40;3.13;;;;;;;23.73;39.16;101250.00;3565472;40;20191;-65
2022/06/21 10:03:06;;;;;;;8.25;3.47;;;;;;;23.55;39.83;101250.13;3568562;40;20671;-62
2022/06/21 10:05:50;;;;;;;7.38;2.85;;;;;;;23.40;40.36;101263.63;3567094;40;20061;-62
2022/06/21 10:08:47;;;;;;;6.18;2.75;;;;;;;22.90;39.18;101193.19;3571741;40;20135;-63
2022/06/21 10:11:43;;;;;;;4.85;3.03;;;;;;;23.15;38.56;101262.72;3569689;40;20059;-63
2022/06/21 10:14:59;;;;;;;7.47;3.15;;;;;;;22.98;39.13;101263.69;3568916;40;20049;-63
2022/06/21 10:17:50;;;;;;;8.70;2.95;;;;;;;22.94;40.16;101262.31;3567274;40;20062;-63
2022/06/21 10:21:13;;;;;;;5.95;2.60;;;;;;;23.00;39.98;101277.25;3572375;40;20426;-63
2022/06/21 10:24:11;;;;;;;6.40;3.10;;;;;;;23.04;38.57;101278.63;3571844;40;20056;-62
2022/06/21 10:27:06;;;;;;;8.45;3.00;;;;;;;23.15;38.98;101272.81;3572002;40;20058;-62
2022/06/21 10:30:32;;;;;;;6.00;2.88;;;;;;;22.99;39.46;101272.75;3573177;40;20045;-62
2022/06/21 10:33:18;;;;;;;6.45;3.15;;;;;;;23.09;38.56;101265.25;3571863;40;21032;-62
2022/06/21 10:36:10;;;;;;;4.93;2.92;;;;;;;23.12;38.73;101264.91;3574945;40;20064;-62
2022/06/21 10:39:00;;;;;;;10.70;2.92;;;;;;;22.93;38.88;101277.91;3574147;40;20438;-62
2022/06/21 10:42:48;;;;;;;5.30;3.10;;;;;;;22.91;38.02;101279.91;3571020;40;20057;-62
2022/06/21 10:45:19;;;;;;;5.40;2.90;;;;;;;22.81;40.14;101268.22;3529283;40;20085;-62
2022/06/21 10:48:09;;;;;;;4.70;3.28;;;;;;;22.78;41.17;101265.78;3571704;40;20055;-62
2022/06/21 10:51:44;;;;;;;3.40;2.83;;;;;;;22.37;42.65;101205.28;3570212;40;20057;-62
2022/06/21 10:54:34;;;;;;;6.65;3.45;;;;;;;22.67;40.08;101274.28;3554858;40;20054;-62
2022/06/21 10:57:20;;;;;;;8.00;3.45;;;;;;;22.78;41.04;101268.53;3568859;40;20072;-62
2022/06/21 11:02:54;;;;;;;5.50;3.50;;;;;;;23.03;40.21;101288.72;3567533;40;20079;-62
2022/06/21 11:05:46;;;;;;;6.75;3.22;;;;;;;22.97;40.66;101294.03;3568424;40;20078;-62
2022/06/21 11:08:33;;;;;;;5.40;3.30;;;;;;;22.81;40.26;101284.66;3569790;40;20044;-62
2022/06/21 11:11:21;;;;;;;10.07;3.83;;;;;;;22.76;40.48;101284.28;3567631;40;20525;-63
2022/06/21 11:14:15;;;;;;;7.05;3.40;;;;;;;22.74;40.09;101277.22;3567420;40;20096;-63
2022/06/21 11:17:08;;;;;;;7.20;3.88;;;;;;;22.66;40.33;101275.31;3570627;40;20057;-63
2022/06/21 11:20:03;;;;;;;6.93;3.73;;;;;;;22.61;42.10;101274.94;3570932;40;20061;-63
2022/06/21 11:22:56;;;;;;;5.95;3.63;;;;;;;22.71;41.76;101272.97;3568940;40;20056;-62
2022/06/21 11:25:48;;;;;;;9.00;3.38;;;;;;;22.75;42.04;101268.88;3573456;40;20056;-63
2022/06/21 11:28:45;;;;;;;7.53;3.38;;;;;;;22.72;40.44;101274.66;3565939;40;20064;-63
2022/06/21 11:31:47;;;;;;;7.32;3.70;;;;;;;22.80;41.07;101271.94;3564569;40;20061;-63
2022/06/21 11:34:41;;;;;;;4.70;3.30;;;;;;;22.82;40.90;101266.31;3567603;40;20304;-62
2022/06/21 11:37:21;;;;;;;10.35;3.25;;;;;;;22.92;39.86;101270.63;3568746;40;20098;-62
2022/06/21 11:40:08;;;;;;;8.57;3.10;;;;;;;22.91;39.81;101260.72;3567406;40;20315;-65
2022/06/21 11:42:53;;;;;;;10.93;3.80;;;;;;;23.07;39.93;101246.22;3570494;40;20065;-63
2022/06/21 11:45:49;;;;;;;6.10;3.58;;;;;;;23.08;40.46;101241.59;3567421;40;20065;-62
2022/06/21 11:49:14;;;;;;;6.53;4.00;;;;;;;23.25;39.82;101254.34;3566626;40;20063;-63
2022/06/21 11:52:13;;;;;;;5.22;3.22;;;;;;;23.39;40.02;101247.34;3568150;40;20044;-63
2022/06/21 11:55:04;;;;;;;7.72;3.00;;;;;;;23.58;38.98;101251.66;3566971;40;20064;-63
2022/06/21 11:57:55;;;;;;;10.13;3.53;;;;;;;24.27;37.72;101260.47;3567215;40;20927;-63
2022/06/21 12:00:39;;;;;;;6.05;3.45;;;;;;;24.30;37.79;101255.47;3566265;40;20134;-63
2022/06/21 12:03:47;;;;;;;5.32;3.00;;;;;;;24.48;36.56;101254.44;3571477;40;20053;-63
2022/06/21 12:06:34;;;;;;;5.13;2.75;;;;;;;25.30;38.61;101256.88;3559535;40;20067;-63
2022/06/21 12:09:24;;;;;;;4.88;3.00;;;;;;;26.22;34.15;101241.22;3567212;40;20379;-63
2022/06/21 12:12:38;;;;;;;7.15;2.88;;;;;;;25.98;34.02;101242.31;3566216;40;20058;-63
2022/06/21 12:15:21;;;;;;;5.20;3.08;;;;;;;25.76;34.47;101238.50;3568731;40;20068;-63
2022/06/21 12:18:11;;;;;;;;;;;;;;;25.25;33.96;101232.66;3569122;40;20426;-63
2022/06/21 12:20:50;;;;;;;4.38;2.90;;;;;;;24.53;36.33;101232.78;3566286;40;20095;-62
2022/06/21 12:23:30;;;;;;;5.90;2.97;;;;;;;24.37;36.10;101228.16;3566992;40;20056;-63
2022/06/21 12:25:57;;;;;;;5.63;3.70;;;;;;;24.13;36.31;101217.19;3566960;40;20453;-63
2022/06/21 12:28:30;;;;;;;9.77;3.50;;;;;;;24.10;37.08;101223.88;3567085;40;20088;-62
2022/06/21 12:31:01;;;;;;;6.47;3.08;;;;;;;24.01;36.36;101224.97;3568990;40;20122;-62
2022/06/21 12:33:36;;;;;;;10.30;3.10;;;;;;;23.84;37.37;101221.34;3567148;40;20060;-63
2022/06/21 12:36:01;;;;;;;6.97;3.10;;;;;;;23.72;37.13;101217.22;3570180;40;20076;-62
2022/06/21 12:38:59;;;;;;;4.82;3.38;;;;;;;23.66;37.90;101199.53;3565938;40;20745;-63
2022/06/21 12:42:05;;;;;;;5.57;3.10;;;;;;;23.71;36.08;101199.91;3558256;40;20041;-62
2022/06/21 12:45:05;;;;;;;4.22;2.88;;;;;;;23.86;35.50;101220.16;3568804;40;20146;-63
2022/06/21 12:47:53;;;;;;;4.38;2.60;;;;;;;23.80;34.85;101226.31;3569669;40;20096;-62
2022/06/21 12:51:01;;;;;;;4.68;2.30;;;;;;;23.75;34.39;101220.47;3566677;40;20061;-63
2022/06/21 12:54:11;;;;;;;5.97;2.50;;;;;;;23.78;35.74;101217.38;3568966;40;20138;-63